Time;durP1;ratioP1;P1;durP2;ratioP2;P2;SDS_P1;SDS_P2;PMS_P1;PMS_P2;Temp;Humidity;BMP_temperature;BMP_pressure;BME280_temperature;BME280_humidity;BME280_pressure;Samples;Min_cycle;Max_cycle;Signal;HPM_P1;HPM_P2
2021/06/09 00:00:13;;;;;;;34.60;30.90;;;15.90;99.90;;;;;;5073548;28;20493;-66
2021/06/09 00:02:39;;;;;;;35.13;31.35;;;15.80;99.90;;;;;;5073047;28;20299;-66
2021/06/09 00:05:06;;;;;;;37.08;31.63;;;15.80;99.90;;;;;;5073740;28;20039;-67
2021/06/09 00:07:32;;;;;;;33.92;29.95;;;15.70;99.90;;;;;;5072540;28;20073;-67
2021/06/09 00:09:57;;;;;;;43.20;33.70;;;15.70;99.90;;;;;;5073333;28;20025;-67
2021/06/09 00:12:23;;;;;;;50.47;40.63;;;15.70;99.90;;;;;;5072392;28;20028;-69
2021/06/09 00:14:48;;;;;;;45.40;37.38;;;15.60;99.90;;;;;;5073723;28;20044;-67
2021/06/09 00:17:15;;;;;;;42.67;34.80;;;15.60;99.90;;;;;;5073209;28;20028;-67
2021/06/09 00:19:41;;;;;;;41.47;36.05;;;15.60;99.90;;;;;;5071857;28;20035;-67
2021/06/09 00:22:07;;;;;;;44.45;36.53;;;15.60;99.90;;;;;;5054978;28;20040;-67
2021/06/09 00:24:33;;;;;;;37.45;33.28;;;15.60;99.90;;;;;;5072049;28;20163;-67
2021/06/09 00:26:59;;;;;;;43.10;36.13;;;15.60;99.90;;;;;;5072804;28;20043;-67
2021/06/09 00:29:25;;;;;;;51.08;37.83;;;15.60;99.90;;;;;;5071795;28;20025;-68
2021/06/09 00:31:51;;;;;;;42.42;35.40;;;15.60;99.90;;;;;;5073063;28;20029;-67
2021/06/09 00:34:17;;;;;;;39.95;34.85;;;15.60;99.90;;;;;;5073114;28;20032;-67
2021/06/09 00:36:43;;;;;;;38.80;32.97;;;15.50;99.90;;;;;;5071848;28;20595;-67
2021/06/09 00:39:08;;;;;;;40.22;32.88;;;15.50;99.90;;;;;;5072881;28;20475;-68
2021/06/09 00:41:37;;;;;;;36.78;31.67;;;15.50;99.90;;;;;;5071728;28;20484;-68
2021/06/09 00:44:06;;;;;;;38.28;31.55;;;15.40;99.90;;;;;;5072211;28;20048;-68
2021/06/09 00:46:35;;;;;;;42.73;34.53;;;15.40;99.90;;;;;;5071511;28;20024;-68
2021/06/09 00:49:01;;;;;;;40.53;33.10;;;15.40;99.90;;;;;;5072361;28;20477;-68
2021/06/09 00:51:27;;;;;;;41.13;34.28;;;15.40;99.90;;;;;;5071587;28;20028;-68
2021/06/09 00:53:55;;;;;;;43.85;38.45;;;15.40;99.90;;;;;;5072886;28;20060;-68
2021/06/09 00:56:22;;;;;;;45.05;37.15;;;15.40;99.90;;;;;;5072324;28;20385;-70
2021/06/09 00:58:50;;;;;;;39.28;33.83;;;15.30;99.90;;;;;;5071716;28;20028;-68
2021/06/09 01:01:17;;;;;;;40.72;34.67;;;15.30;99.90;;;;;;5073271;28;20036;-68
2021/06/09 01:03:44;;;;;;;42.20;34.80;;;15.30;99.90;;;;;;5072285;28;20675;-68
2021/06/09 01:06:10;;;;;;;45.88;36.92;;;15.30;99.90;;;;;;5072195;28;20024;-68
2021/06/09 01:08:37;;;;;;;43.72;36.63;;;15.30;99.90;;;;;;5055026;28;20374;-68
2021/06/09 01:11:06;;;;;;;40.17;34.58;;;15.30;99.90;;;;;;5071875;28;20236;-68
2021/06/09 01:13:32;;;;;;;39.15;33.97;;;15.30;99.90;;;;;;5070760;28;20028;-68
2021/06/09 01:15:58;;;;;;;44.33;37.60;;;15.30;99.90;;;;;;5071665;28;20403;-68
2021/06/09 01:18:25;;;;;;;45.83;38.05;;;15.30;99.90;;;;;;5070922;28;20056;-70
2021/06/09 01:20:51;;;;;;;45.10;36.78;;;15.30;99.90;;;;;;5072127;28;20040;-68
2021/06/09 01:23:17;;;;;;;38.72;32.20;;;15.30;99.90;;;;;;5072292;28;20035;-68
2021/06/09 01:25:43;;;;;;;35.90;30.85;;;15.30;99.90;;;;;;5070624;28;20024;-68
2021/06/09 01:28:09;;;;;;;33.83;30.00;;;15.30;99.90;;;;;;5071553;28;20154;-68
2021/06/09 01:30:38;;;;;;;41.80;33.38;;;15.30;99.90;;;;;;5071117;28;20495;-68
2021/06/09 01:33:05;;;;;;;35.60;31.27;;;15.30;99.90;;;;;;5072265;28;20484;-68
2021/06/09 01:35:31;;;;;;;36.47;31.80;;;15.30;99.90;;;;;;5070857;28;20029;-68
2021/06/09 01:37:57;;;;;;;40.47;34.75;;;15.30;99.90;;;;;;5071724;28;20045;-68
2021/06/09 01:40:25;;;;;;;44.72;36.10;;;15.30;99.90;;;;;;5071371;28;20531;-70
2021/06/09 01:42:52;;;;;;;41.05;35.10;;;15.30;99.90;;;;;;5070859;28;20474;-68
2021/06/09 01:45:21;;;;;;;38.75;33.10;;;15.30;99.90;;;;;;5071524;28;20059;-68
2021/06/09 01:47:46;;;;;;;36.80;31.50;;;15.30;99.90;;;;;;5071004;28;20070;-68
2021/06/09 01:50:15;;;;;;;38.80;32.20;;;15.30;99.90;;;;;;5071797;28;20064;-68
2021/06/09 01:52:41;;;;;;;36.25;31.95;;;15.30;99.90;;;;;;5070298;28;20130;-68
2021/06/09 01:55:09;;;;;;;34.83;30.80;;;15.30;99.90;;;;;;5071154;28;20060;-68
2021/06/09 01:57:36;;;;;;;39.22;34.63;;;15.30;99.90;;;;;;5070399;28;20046;-68
2021/06/09 02:00:14;;;;;;;47.92;38.03;;;15.30;99.90;;;;;;5071154;28;20063;-68
2021/06/09 02:02:40;;;;;;;41.97;35.33;;;15.30;99.90;;;;;;5070664;28;20021;-68
2021/06/09 02:05:08;;;;;;;36.08;31.77;;;15.40;99.90;;;;;;5071291;28;20048;-68
2021/06/09 02:07:44;;;;;;;42.53;35.53;;;15.40;99.90;;;;;;5052747;28;20067;-68
2021/06/09 02:10:14;;;;;;;45.97;37.70;;;15.40;99.90;;;;;;5071399;28;20035;-68
2021/06/09 02:12:43;;;;;;;47.30;37.83;;;15.40;99.90;;;;;;5070723;28;20601;-68
2021/06/09 02:15:10;;;;;;;46.78;37.50;;;15.40;99.90;;;;;;5071497;28;20024;-68
2021/06/09 02:17:36;;;;;;;40.50;34.42;;;15.50;99.90;;;;;;5070392;28;20161;-68
2021/06/09 02:20:04;;;;;;;41.47;34.05;;;15.50;99.90;;;;;;5071183;28;20036;-66
2021/06/09 02:22:30;;;;;;;41.88;35.17;;;15.50;99.90;;;;;;5070438;28;20041;-67
2021/06/09 02:24:56;;;;;;;38.95;34.10;;;15.50;99.90;;;;;;5071250;28;20032;-66
2021/06/09 02:27:22;;;;;;;39.22;33.30;;;15.50;99.90;;;;;;5070990;28;20033;-68
2021/06/09 02:29:48;;;;;;;41.03;34.92;;;15.50;99.90;;;;;;5070218;28;20378;-67
2021/06/09 02:32:18;;;;;;;38.42;33.97;;;15.50;99.90;;;;;;5071330;28;20042;-67
2021/06/09 02:34:43;;;;;;;41.23;33.67;;;15.50;99.90;;;;;;5070769;28;20120;-67
2021/06/09 02:37:09;;;;;;;35.95;30.98;;;15.50;99.90;;;;;;5073879;28;20495;-67
2021/06/09 02:39:35;;;;;;;41.72;34.13;;;15.50;99.90;;;;;;5074220;28;20504;-67
2021/06/09 02:42:00;;;;;;;39.33;34.40;;;15.60;99.90;;;;;;5074856;28;20539;-68
2021/06/09 02:44:26;;;;;;;38.33;33.33;;;15.50;99.90;;;;;;5074058;28;20020;-70
2021/06/09 02:46:55;;;;;;;36.78;32.65;;;15.60;99.90;;;;;;5074451;28;20071;-68
2021/06/09 02:49:23;;;;;;;38.13;32.95;;;15.60;99.90;;;;;;5074771;28;20028;-68
2021/06/09 02:52:03;;;;;;;40.78;34.75;;;15.60;99.90;;;;;;5073376;28;20024;-67
2021/06/09 02:54:36;;;;;;;40.70;33.87;;;15.60;99.90;;;;;;5074320;28;20056;-68
2021/06/09 02:57:08;;;;;;;43.10;35.97;;;15.50;99.90;;;;;;5075144;28;20082;-67
2021/06/09 03:00:12;;;;;;;42.75;36.58;;;15.50;99.90;;;;;;5073794;28;20044;-68
2021/06/09 03:02:54;;;;;;;42.35;33.75;;;15.60;99.90;;;;;;5056175;28;20060;-68
2021/06/09 03:05:31;;;;;;;44.72;37.70;;;15.50;99.90;;;;;;5074179;28;20035;-67
2021/06/09 03:08:37;;;;;;;53.90;40.63;;;15.50;99.90;;;;;;5074689;28;20040;-67
2021/06/09 03:11:29;;;;;;;47.13;39.65;;;15.50;99.90;;;;;;5051394;28;20049;-67
2021/06/09 03:17:14;;;;;;;50.50;41.65;;;15.50;99.90;;;;;;4972958;28;20034;-67
2021/06/09 03:19:49;;;;;;;56.60;44.72;;;15.50;99.90;;;;;;5062340;28;20048;-66
2021/06/09 03:22:30;;;;;;;50.38;41.45;;;15.50;99.90;;;;;;5074296;28;20424;-66
2021/06/09 03:24:57;;;;;;;55.05;42.72;;;15.50;99.90;;;;;;5074542;28;20021;-66
2021/06/09 03:27:32;;;;;;;57.45;44.83;;;15.40;99.90;;;;;;5074458;28;20033;-66
2021/06/09 03:30:07;;;;;;;61.97;45.60;;;15.40;99.90;;;;;;5074190;28;20040;-66
2021/06/09 03:32:54;;;;;;;55.60;43.75;;;15.40;99.90;;;;;;5073574;28;20042;-67
2021/06/09 03:35:33;;;;;;;51.30;41.15;;;15.40;99.90;;;;;;5074322;28;20024;-67
2021/06/09 03:38:03;;;;;;;51.35;39.53;;;15.40;99.90;;;;;;5073431;28;20044;-67
2021/06/09 03:40:40;;;;;;;57.50;44.17;;;15.40;99.90;;;;;;5073040;28;20046;-69
2021/06/09 03:43:09;;;;;;;53.97;42.58;;;15.40;99.90;;;;;;5073641;28;20032;-67
2021/06/09 03:45:41;;;;;;;55.40;42.43;;;15.40;99.90;;;;;;5073048;28;20021;-67
2021/06/09 03:48:09;;;;;;;47.60;39.85;;;15.40;99.90;;;;;;5072671;28;20039;-67
2021/06/09 03:50:37;;;;;;;47.03;38.47;;;15.40;99.90;;;;;;5072995;28;20033;-67
2021/06/09 03:53:03;;;;;;;41.78;34.72;;;15.40;99.90;;;;;;5073549;28;20391;-69
2021/06/09 03:55:33;;;;;;;34.30;29.23;;;15.50;99.90;;;;;;5073189;28;20028;-69
2021/06/09 03:58:01;;;;;;;40.97;32.80;;;15.40;99.90;;;;;;5073894;28;20029;-67
2021/06/09 04:00:28;;;;;;;40.92;35.05;;;15.40;99.90;;;;;;5073212;28;20032;-69
2021/06/09 04:02:56;;;;;;;39.63;35.28;;;15.50;99.90;;;;;;5072918;28;20111;-67
2021/06/09 04:05:24;;;;;;;38.40;32.88;;;15.50;99.90;;;;;;5072899;28;20107;-68
2021/06/09 04:07:51;;;;;;;33.08;29.35;;;15.50;99.90;;;;;;5072130;28;20036;-67
2021/06/09 04:10:19;;;;;;;32.83;29.15;;;15.50;99.90;;;;;;5073661;28;20078;-67
2021/06/09 04:12:45;;;;;;;37.63;33.55;;;15.60;99.90;;;;;;5072973;28;20021;-68
2021/06/09 04:15:12;;;;;;;37.35;33.25;;;15.60;99.90;;;;;;5073435;28;20454;-69
2021/06/09 04:17:40;;;;;;;39.03;33.00;;;15.60;99.90;;;;;;5072351;28;20032;-67
2021/06/09 04:20:07;;;;;;;35.10;30.52;;;15.60;99.90;;;;;;5073342;28;20033;-68
2021/06/09 04:22:34;;;;;;;37.75;30.90;;;15.60;99.90;;;;;;5072205;28;20433;-68
2021/06/09 04:25:02;;;;;;;36.17;31.10;;;15.70;99.90;;;;;;5073102;28;20024;-67
2021/06/09 04:27:30;;;;;;;33.88;28.63;;;15.70;99.90;;;;;;5072718;28;20043;-69
2021/06/09 04:29:56;;;;;;;30.40;27.30;;;15.80;99.90;;;;;;5072703;28;20030;-68
2021/06/09 04:32:24;;;;;;;29.38;25.33;;;15.80;99.90;;;;;;5072661;28;20473;-67
2021/06/09 04:34:55;;;;;;;35.00;30.40;;;15.80;99.90;;;;;;5072312;28;20267;-68
2021/06/09 04:37:23;;;;;;;34.03;29.20;;;15.90;99.90;;;;;;5073065;28;20028;-68
2021/06/09 04:39:50;;;;;;;32.13;28.15;;;16.00;99.90;;;;;;5071943;28;20103;-68
2021/06/09 04:42:17;;;;;;;32.45;28.98;;;16.00;99.90;;;;;;5072664;28;20043;-68
2021/06/09 04:44:43;;;;;;;41.95;34.67;;;16.10;99.90;;;;;;5071130;28;20024;-68
2021/06/09 04:47:11;;;;;;;39.15;33.33;;;16.20;99.90;;;;;;5072454;28;20041;-68
2021/06/09 04:49:40;;;;;;;40.10;34.75;;;16.30;99.90;;;;;;5071226;28;20123;-68
2021/06/09 04:52:07;;;;;;;34.40;30.60;;;16.30;99.90;;;;;;5072477;28;20132;-68
2021/06/09 04:54:34;;;;;;;37.13;33.00;;;16.40;99.90;;;;;;5071237;28;20090;-68
2021/06/09 04:56:59;;;;;;;40.15;33.25;;;16.40;99.90;;;;;;5072306;28;20039;-68
2021/06/09 04:59:25;;;;;;;35.97;31.88;;;16.50;99.90;;;;;;5072536;28;20115;-68
2021/06/09 05:01:51;;;;;;;35.85;30.13;;;16.50;99.90;;;;;;5071733;28;20024;-68
2021/06/09 05:04:17;;;;;;;35.00;29.77;;;16.50;99.90;;;;;;5072658;28;20438;-67
2021/06/09 05:06:43;;;;;;;33.88;28.17;;;16.60;99.90;;;;;;5071268;28;20032;-67
2021/06/09 05:09:10;;;;;;;32.65;29.13;;;16.60;99.90;;;;;;5071621;28;20390;-68
2021/06/09 05:11:38;;;;;;;30.77;27.55;;;16.60;99.90;;;;;;5053414;28;20464;-68
2021/06/09 05:14:10;;;;;;;33.88;30.17;;;16.60;99.90;;;;;;5072140;28;20494;-68
2021/06/09 05:16:38;;;;;;;31.00;27.15;;;16.60;99.90;;;;;;5071105;28;20058;-68
2021/06/09 05:19:05;;;;;;;31.52;27.70;;;16.60;99.90;;;;;;5071485;28;20036;-68
2021/06/09 05:21:33;;;;;;;28.63;25.63;;;16.70;99.90;;;;;;5071063;28;20024;-69
2021/06/09 05:24:01;;;;;;;27.98;24.98;;;16.70;99.90;;;;;;5072143;28;20029;-68
2021/06/09 05:26:29;;;;;;;28.98;25.85;;;16.80;99.90;;;;;;5071930;28;20079;-68
2021/06/09 05:28:59;;;;;;;31.90;26.27;;;16.80;99.90;;;;;;5072023;28;20037;-67
2021/06/09 05:31:26;;;;;;;30.63;26.77;;;16.80;99.90;;;;;;5071826;28;20525;-68
2021/06/09 05:33:54;;;;;;;32.75;26.48;;;16.90;99.90;;;;;;5071342;28;20109;-67
2021/06/09 05:36:21;;;;;;;27.05;24.35;;;17.00;99.90;;;;;;5071533;28;20103;-68
2021/06/09 05:38:47;;;;;;;32.20;25.90;;;17.00;99.90;;;;;;5070038;28;20074;-68
2021/06/09 05:41:13;;;;;;;31.02;27.45;;;17.10;99.90;;;;;;5070884;28;20031;-68
2021/06/09 05:43:40;;;;;;;28.42;25.00;;;17.20;99.90;;;;;;5052254;28;20028;-68
2021/06/09 05:46:08;;;;;;;25.75;22.15;;;17.30;99.90;;;;;;5071563;28;20028;-68
2021/06/09 05:48:42;;;;;;;26.02;23.23;;;17.40;99.90;;;;;;5070962;28;20112;-69
2021/06/09 05:51:10;;;;;;;26.73;22.63;;;17.50;99.90;;;;;;5071442;28;20032;-68
2021/06/09 05:53:36;;;;;;;26.58;23.77;;;17.60;99.90;;;;;;5070540;28;20502;-69
2021/06/09 05:56:02;;;;;;;25.13;22.58;;;17.80;99.90;;;;;;5071236;28;20078;-68
2021/06/09 05:58:28;;;;;;;29.85;25.40;;;18.00;99.90;;;;;;5071673;28;20060;-70
2021/06/09 06:00:57;;;;;;;27.20;24.30;;;18.20;99.90;;;;;;5069672;28;20460;-70
2021/06/09 06:03:24;;;;;;;26.95;24.05;;;18.30;99.90;;;;;;5070827;28;20085;-69
2021/06/09 06:05:58;;;;;;;31.92;24.58;;;18.40;99.90;;;;;;5069485;28;20059;-69
2021/06/09 06:08:26;;;;;;;32.30;25.23;;;18.50;99.90;;;;;;5070554;28;20489;-68
2021/06/09 06:10:52;;;;;;;27.92;24.80;;;18.60;99.90;;;;;;5068845;28;20032;-67
2021/06/09 06:13:19;;;;;;;30.88;25.05;;;18.60;99.90;;;;;;5071381;28;20100;-68
2021/06/09 06:15:46;;;;;;;31.02;24.55;;;18.60;99.90;;;;;;5070853;28;20031;-67
2021/06/09 06:18:14;;;;;;;30.65;23.02;;;18.60;99.90;;;;;;5067110;28;20039;-71
2021/06/09 06:20:43;;;;;;;27.92;23.60;;;18.60;99.90;;;;;;5072377;28;20047;-71
2021/06/09 06:23:10;;;;;;;28.40;23.40;;;18.70;99.90;;;;;;5071464;28;20044;-71
2021/06/09 06:25:36;;;;;;;26.88;22.77;;;18.80;99.90;;;;;;5066785;28;20058;-73
2021/06/09 06:28:02;;;;;;;26.02;20.80;;;19.00;99.90;;;;;;5071360;28;20033;-73
2021/06/09 06:30:28;;;;;;;25.55;22.60;;;19.20;99.90;;;;;;5070756;28;20115;-73
2021/06/09 06:32:57;;;;;;;25.65;20.95;;;19.30;99.90;;;;;;5065445;28;20032;-73
2021/06/09 06:35:26;;;;;;;24.15;20.33;;;19.40;99.90;;;;;;5071297;28;20111;-72
2021/06/09 06:37:52;;;;;;;28.48;21.27;;;19.50;99.90;;;;;;5051950;28;20217;-72
2021/06/09 06:40:27;;;;;;;21.50;18.30;;;19.60;99.90;;;;;;5070748;28;20028;-73
2021/06/09 06:42:55;;;;;;;20.10;17.80;;;19.80;99.90;;;;;;5070026;28;20063;-71
2021/06/09 06:45:23;;;;;;;27.98;22.42;;;19.80;99.90;;;;;;5070673;28;20032;-72
2021/06/09 06:47:53;;;;;;;25.20;21.17;;;20.00;99.90;;;;;;5069761;28;20035;-71
2021/06/09 06:50:21;;;;;;;31.30;22.10;;;20.00;99.90;;;;;;5070572;28;20089;-71
2021/06/09 06:52:47;;;;;;;24.08;20.77;;;20.00;99.90;;;;;;5068273;28;20378;-69
2021/06/09 06:55:15;;;;;;;25.83;21.13;;;20.00;99.90;;;;;;5090971;28;20502;-70
2021/06/09 06:57:42;;;;;;;22.65;19.10;;;20.00;99.90;;;;;;5089511;28;20081;-74
2021/06/09 07:00:13;;;;;;;20.92;18.73;;;20.00;99.90;;;;;;5091145;28;20028;-71
2021/06/09 07:02:41;;;;;;;17.70;15.90;;;20.00;99.90;;;;;;5090017;28;20488;-74
2021/06/09 07:05:09;;;;;;;25.55;20.15;;;20.10;99.90;;;;;;5081559;28;20028;-71
2021/06/09 07:07:36;;;;;;;24.42;21.23;;;20.10;99.90;;;;;;5081878;28;20032;-70
2021/06/09 07:10:08;;;;;;;25.83;22.08;;;20.10;99.90;;;;;;5090866;28;20054;-70
2021/06/09 07:12:38;;;;;;;25.33;21.05;;;20.10;99.90;;;;;;5089984;28;20106;-69
2021/06/09 07:15:06;;;;;;;25.95;21.67;;;20.00;99.90;;;;;;5089956;28;20059;-68
2021/06/09 07:17:37;;;;;;;25.67;21.17;;;20.10;99.90;;;;;;5090289;28;20032;-67
2021/06/09 07:20:07;;;;;;;24.90;21.42;;;20.00;99.90;;;;;;5090271;28;20043;-67
2021/06/09 07:22:33;;;;;;;25.98;21.88;;;20.00;99.90;;;;;;5090743;28;20040;-67
2021/06/09 07:24:59;;;;;;;25.63;21.70;;;20.00;99.90;;;;;;5093965;28;20017;-66
2021/06/09 07:27:28;;;;;;;26.95;22.15;;;20.10;99.90;;;;;;5094270;28;20461;-67
2021/06/09 07:29:56;;;;;;;24.63;21.02;;;20.20;99.90;;;;;;5093666;28;20605;-65
2021/06/09 07:32:22;;;;;;;28.48;22.92;;;20.30;99.90;;;;;;5094202;28;20039;-65
2021/06/09 07:34:49;;;;;;;24.50;21.92;;;20.60;99.90;;;;;;5092617;28;20032;-66
2021/06/09 07:37:18;;;;;;;26.23;22.42;;;20.70;99.90;;;;;;5093485;28;20028;-66
2021/06/09 07:40:07;;;;;;;25.60;22.83;;;20.80;99.90;;;;;;5093220;28;20031;-65
2021/06/09 07:42:34;;;;;;;23.27;20.40;;;21.00;99.90;;;;;;5094010;28;20096;-64
2021/06/09 07:45:09;;;;;;;27.05;23.77;;;21.30;99.90;;;;;;5092246;28;20024;-65
2021/06/09 07:47:36;;;;;;;21.85;19.42;;;21.50;98.40;;;;;;5092940;28;20032;-66
2021/06/09 07:50:06;;;;;;;17.98;16.20;;;21.70;98.20;;;;;;5093251;28;20032;-65
2021/06/09 07:52:35;;;;;;;24.83;21.00;;;22.00;97.50;;;;;;5085549;28;20059;-65
2021/06/09 07:55:01;;;;;;;25.60;19.65;;;22.30;95.00;;;;;;5072945;28;20032;-64
2021/06/09 07:57:32;;;;;;;24.02;20.30;;;22.50;93.80;;;;;;5073220;28;20028;-64
2021/06/09 08:00:00;;;;;;;23.85;20.52;;;22.60;93.20;;;;;;5072363;28;20489;-66
2021/06/09 08:02:26;;;;;;;24.52;20.70;;;22.70;92.70;;;;;;5072984;28;20387;-65
2021/06/09 08:04:53;;;;;;;20.10;18.05;;;22.70;92.10;;;;;;5071939;28;20354;-65
2021/06/09 08:07:18;;;;;;;24.15;21.58;;;22.50;93.00;;;;;;5073082;28;20043;-66
2021/06/09 08:09:44;;;;;;;23.83;18.92;;;22.20;93.90;;;;;;5072013;28;20024;-66
2021/06/09 08:12:10;;;;;;;24.48;21.52;;;22.20;94.90;;;;;;5073346;28;20063;-66
2021/06/09 08:14:36;;;;;;;21.55;18.83;;;22.20;95.20;;;;;;5054566;28;20028;-66
2021/06/09 08:17:02;;;;;;;21.25;18.95;;;22.20;95.20;;;;;;5072019;28;20029;-66
2021/06/09 08:19:28;;;;;;;24.42;19.52;;;22.30;94.20;;;;;;5073108;28;20043;-67
2021/06/09 08:21:54;;;;;;;26.02;23.27;;;22.50;94.10;;;;;;5071418;28;20028;-66
2021/06/09 08:24:20;;;;;;;23.25;20.83;;;22.60;92.20;;;;;;5073185;28;20374;-66
2021/06/09 08:26:46;;;;;;;20.52;18.40;;;22.60;92.40;;;;;;5071987;28;20075;-66
2021/06/09 08:29:12;;;;;;;25.70;23.00;;;22.50;93.40;;;;;;5072630;28;20058;-67
2021/06/09 08:31:38;;;;;;;28.48;22.83;;;22.40;93.10;;;;;;5072162;28;20029;-65
2021/06/09 08:34:06;;;;;;;26.80;22.42;;;22.30;93.10;;;;;;5072524;28;20032;-67
2021/06/09 08:36:32;;;;;;;22.27;19.75;;;22.30;94.20;;;;;;5072705;28;20031;-66
2021/06/09 08:38:59;;;;;;;20.10;18.08;;;22.30;93.80;;;;;;5071284;28;20029;-66
2021/06/09 08:41:36;;;;;;;23.85;21.30;;;22.50;93.90;;;;;;5072560;28;20066;-66
2021/06/09 08:44:04;;;;;;;26.15;23.42;;;22.70;93.00;;;;;;5071864;28;20025;-67
2021/06/09 08:46:31;;;;;;;26.77;23.55;;;22.80;91.70;;;;;;5072184;28;20149;-67
2021/06/09 08:48:57;;;;;;;23.10;20.77;;;22.80;91.90;;;;;;5071291;28;20131;-67
2021/06/09 08:51:25;;;;;;;26.27;22.85;;;22.80;91.90;;;;;;5072322;28;20036;-67
2021/06/09 08:53:52;;;;;;;24.92;22.23;;;22.80;92.50;;;;;;5071444;28;20049;-68
2021/06/09 08:56:21;;;;;;;25.60;23.08;;;22.80;91.80;;;;;;5072351;28;20530;-67
2021/06/09 08:58:47;;;;;;;24.00;21.58;;;22.90;91.90;;;;;;5071214;28;20024;-68
2021/06/09 09:01:14;;;;;;;28.58;24.75;;;23.00;93.00;;;;;;5054160;28;20555;-67
2021/06/09 09:03:44;;;;;;;25.75;21.92;;;23.10;91.70;;;;;;5071379;28;20062;-68
2021/06/09 09:06:10;;;;;;;23.63;21.00;;;23.20;91.40;;;;;;5071936;28;20032;-67
2021/06/09 09:08:36;;;;;;;24.52;18.58;;;23.30;91.10;;;;;;5071057;28;20043;-64
2021/06/09 09:11:02;;;;;;;25.67;23.10;;;23.50;90.80;;;;;;5071502;28;20117;-67
2021/06/09 09:13:28;;;;;;;23.75;21.25;;;23.80;89.70;;;;;;5071407;28;20033;-65
2021/06/09 09:15:55;;;;;;;24.95;22.45;;;23.80;88.30;;;;;;5070826;28;20036;-65
2021/06/09 09:18:35;;;;;;;20.65;18.52;;;24.00;86.30;;;;;;5071355;28;20111;-64
2021/06/09 09:21:01;;;;;;;22.48;20.15;;;24.10;84.90;;;;;;5070666;28;20087;-65
2021/06/09 09:23:30;;;;;;;23.10;20.63;;;24.10;84.80;;;;;;5071617;28;20062;-65
2021/06/09 09:25:58;;;;;;;22.35;20.10;;;24.20;85.20;;;;;;5070719;28;20028;-66
2021/06/09 09:28:34;;;;;;;21.83;19.60;;;24.20;85.10;;;;;;5071516;28;20047;-66
2021/06/09 09:31:11;;;;;;;24.83;22.08;;;24.30;86.80;;;;;;5070622;28;20027;-65
2021/06/09 09:33:38;;;;;;;23.60;20.90;;;24.30;82.90;;;;;;5071162;28;20363;-67
2021/06/09 09:36:29;;;;;;;21.80;19.30;;;24.30;84.00;;;;;;5071132;28;20038;-65
2021/06/09 09:38:57;;;;;;;22.35;20.17;;;24.30;83.90;;;;;;5070341;28;20115;-65
2021/06/09 09:41:31;;;;;;;23.73;19.48;;;24.40;83.50;;;;;;5042118;28;20045;-65
2021/06/09 09:43:58;;;;;;;25.92;22.85;;;24.50;80.10;;;;;;5067697;28;20059;-65
2021/06/09 09:46:23;;;;;;;27.77;20.88;;;24.50;81.00;;;;;;5070691;28;20507;-65
2021/06/09 09:49:12;;;;;;;24.45;21.45;;;24.60;81.80;;;;;;5070264;28;20028;-66
2021/06/09 09:51:58;;;;;;;21.38;19.23;;;24.60;80.40;;;;;;5070868;28;20113;-66
2021/06/09 09:54:34;;;;;;;24.13;21.67;;;24.70;80.60;;;;;;5070734;28;20500;-65
2021/06/09 09:57:01;;;;;;;24.73;22.23;;;24.80;79.40;;;;;;5070184;28;20024;-65
2021/06/09 09:59:28;;;;;;;22.20;19.33;;;24.90;77.00;;;;;;5062821;28;20154;-65
2021/06/09 10:01:56;;;;;;;23.67;21.20;;;25.00;77.50;;;;;;5070355;28;20472;-65
2021/06/09 10:04:30;;;;;;;24.90;22.50;;;25.10;75.80;;;;;;5071613;28;20028;-66
2021/06/09 10:06:57;;;;;;;18.92;17.00;;;25.10;76.30;;;;;;5070358;28;20032;-66
2021/06/09 10:09:44;;;;;;;22.13;19.92;;;25.20;77.00;;;;;;5069518;28;20043;-65
2021/06/09 10:12:12;;;;;;;21.80;19.42;;;25.40;75.30;;;;;;5071116;28;20377;-67
2021/06/09 10:14:46;;;;;;;25.30;19.85;;;25.60;73.50;;;;;;5071130;28;20461;-66
2021/06/09 10:17:16;;;;;;;19.63;17.60;;;25.60;72.70;;;;;;5065318;28;20047;-67
2021/06/09 10:19:43;;;;;;;24.48;22.05;;;25.60;73.40;;;;;;5070015;28;20028;-68
2021/06/09 10:22:18;;;;;;;21.13;18.98;;;25.70;72.90;;;;;;5071048;28;20094;-65
2021/06/09 10:24:49;;;;;;;24.65;19.20;;;25.70;73.70;;;;;;5062652;28;20029;-67
2021/06/09 10:27:17;;;;;;;22.83;20.33;;;25.80;72.70;;;;;;5070921;28;20385;-67
2021/06/09 10:29:43;;;;;;;20.48;18.25;;;25.80;73.00;;;;;;5051277;28;20371;-66
2021/06/09 10:32:18;;;;;;;22.50;20.10;;;25.90;71.50;;;;;;5070882;28;20048;-66
2021/06/09 10:34:46;;;;;;;18.75;16.77;;;26.00;72.10;;;;;;5070070;28;20024;-68
2021/06/09 10:37:14;;;;;;;19.92;17.67;;;26.00;72.00;;;;;;5070963;28;20060;-66
2021/06/09 10:39:44;;;;;;;19.77;17.70;;;26.10;70.60;;;;;;5070976;28;20028;-68
2021/06/09 10:42:25;;;;;;;18.83;16.90;;;26.20;70.70;;;;;;5070896;28;20025;-66
2021/06/09 10:44:51;;;;;;;21.13;18.42;;;26.40;70.80;;;;;;5070308;28;20038;-67
2021/06/09 10:47:26;;;;;;;21.40;19.20;;;26.60;69.70;;;;;;5069701;28;20021;-67
2021/06/09 10:49:59;;;;;;;19.63;17.00;;;26.70;70.10;;;;;;5069808;28;20032;-66
2021/06/09 10:52:36;;;;;;;17.90;16.10;;;26.80;69.50;;;;;;5070584;28;20076;-65
2021/06/09 10:55:25;;;;;;;22.80;18.45;;;27.00;67.70;;;;;;5069687;28;20071;-67
2021/06/09 10:58:26;;;;;;;20.13;18.08;;;27.00;67.00;;;;;;5071143;28;20049;-67
2021/06/09 11:01:31;;;;;;;15.68;14.10;;;27.10;65.00;;;;;;5067938;28;20123;-67
2021/06/09 11:04:04;;;;;;;14.73;13.00;;;26.90;64.30;;;;;;5073630;28;20070;-66
2021/06/09 11:10:22;;;;;;;17.13;15.32;;;27.10;63.90;;;;;;5051083;28;20041;-68
2021/06/09 11:12:51;;;;;;;16.70;13.40;;;27.40;63.20;;;;;;5037641;28;20032;-67
2021/06/09 11:15:40;;;;;;;15.93;14.13;;;27.60;63.50;;;;;;5073629;28;20032;-69
2021/06/09 11:18:14;;;;;;;15.30;13.82;;;27.80;62.80;;;;;;5072599;28;20445;-68
2021/06/09 11:21:04;;;;;;;12.93;11.73;;;28.00;62.50;;;;;;5074229;28;20059;-69
2021/06/09 11:24:05;;;;;;;14.95;13.48;;;27.90;60.70;;;;;;5074243;28;20025;-66
2021/06/09 11:26:34;;;;;;;15.10;13.32;;;27.70;60.90;;;;;;5067996;28;20047;-67
2021/06/09 11:29:03;;;;;;;15.18;13.63;;;27.80;61.30;;;;;;5073133;28;20035;-67
2021/06/09 11:31:31;;;;;;;13.23;11.98;;;28.00;60.80;;;;;;5074072;28;20063;-67
2021/06/09 11:34:05;;;;;;;15.15;12.20;;;28.10;61.00;;;;;;5073543;28;20028;-68
2021/06/09 11:36:40;;;;;;;13.57;11.52;;;28.50;60.20;;;;;;5073796;28;20099;-66
2021/06/09 11:39:20;;;;;;;12.13;11.02;;;28.80;59.00;;;;;;5072815;28;20142;-67
2021/06/09 11:41:48;;;;;;;13.10;11.65;;;29.20;58.00;;;;;;5072271;28;20024;-66
2021/06/09 11:44:54;;;;;;;9.80;8.85;;;29.40;55.10;;;;;;5073966;28;20040;-65
2021/06/09 11:47:35;;;;;;;7.82;7.13;;;29.30;53.90;;;;;;5059778;28;20037;-67
2021/06/09 11:50:32;;;;;;;8.35;7.60;;;29.30;52.40;;;;;;5064832;28;20040;-67
2021/06/09 11:53:20;;;;;;;11.30;9.95;;;29.50;51.60;;;;;;5072587;28;20076;-66
2021/06/09 11:56:23;;;;;;;10.98;8.98;;;29.50;53.30;;;;;;5067889;28;20020;-67
2021/06/09 11:59:03;;;;;;;8.20;7.28;;;29.50;52.80;;;;;;5032883;28;20106;-66
2021/06/09 12:01:56;;;;;;;8.27;7.47;;;29.60;50.10;;;;;;5073265;28;20032;-67
2021/06/09 12:04:48;;;;;;;8.40;7.70;;;29.30;49.50;;;;;;5067568;28;20458;-67
2021/06/09 12:07:26;;;;;;;9.65;8.82;;;29.30;51.60;;;;;;5054536;28;20048;-67
2021/06/09 12:10:13;;;;;;;9.60;8.70;;;29.50;53.50;;;;;;5071783;28;20066;-65
2021/06/09 12:12:39;;;;;;;10.45;9.18;;;29.60;51.50;;;;;;5050733;28;20045;-65
2021/06/09 12:15:13;;;;;;;11.50;10.30;;;29.50;52.50;;;;;;5072303;28;20571;-65
2021/06/09 12:17:43;;;;;;;10.70;9.57;;;29.10;54.80;;;;;;5071641;28;20039;-66
2021/06/09 12:20:46;;;;;;;17.48;12.35;;;28.90;57.10;;;;;;5072374;28;20040;-64
2021/06/09 12:23:14;;;;;;;13.05;11.85;;;28.90;59.40;;;;;;5072599;28;20041;-64
2021/06/09 12:26:03;;;;;;;13.55;11.57;;;28.80;59.40;;;;;;5072992;28;20040;-64
2021/06/09 12:28:31;;;;;;;12.63;11.43;;;28.90;58.50;;;;;;5072891;28;20043;-65
2021/06/09 12:31:11;;;;;;;11.80;10.70;;;28.90;57.70;;;;;;5072135;28;20067;-64
2021/06/09 12:33:44;;;;;;;16.60;11.55;;;29.20;59.00;;;;;;5072448;28;20032;-65
2021/06/09 12:36:14;;;;;;;11.80;10.48;;;29.00;58.30;;;;;;5072553;28;20041;-66
2021/06/09 12:38:43;;;;;;;11.65;10.52;;;29.00;58.50;;;;;;5072564;28;20036;-65
2021/06/09 12:41:12;;;;;;;10.82;9.73;;;29.00;58.40;;;;;;5072204;28;20024;-65
2021/06/09 12:43:42;;;;;;;15.05;13.55;;;29.00;58.30;;;;;;5072565;28;20107;-66
2021/06/09 12:46:08;;;;;;;14.43;12.93;;;28.70;57.80;;;;;;5071358;28;20038;-65
2021/06/09 12:48:50;;;;;;;13.75;12.45;;;28.20;59.20;;;;;;5068865;28;20119;-68
2021/06/09 12:51:27;;;;;;;11.77;10.57;;;27.80;58.20;;;;;;5073061;28;20036;-68